Líbí se Vám tento web? Budeme velmi rádi, pokud přidáte hodnocení +1

Seznam meteostanic a jejich METAR

Vyhledat místa podle abecedy:
A B C D E F G H I J K L M N O P Q R S T U V W X Y Z

Filtrovat:

ID stanice:
a/nebo
Název místa (fulltext):
 
Místo (ID)Naposledy načteno 
Doksany - Litoměřice (Doksany) 17.01.2018 21:00 UTC Zobrazit data
Místo: Doksany - Litoměřice
Teplota: 1 °C (pocitová: -8.3 °C)
Vítr: 6 m/s z(e) 250°
Počasí: déšť
Dohlednost: 14 km
Zákl. oblačnosti: 1/8 660 m;5/8 840 m
Vlhkost: 93%
Dukovany (Dukovany) 17.01.2018 21:00 UTC Zobrazit data
Místo: Dukovany
Teplota: 0 °C (pocitová: -11 °C)
Vítr: 9 m/s z(e) 280°
Počasí: sněží
Dohlednost: 16 km
Zákl. oblačnosti: 1/8 1140 m;3/8 1500 m
Vlhkost: 87%
Dakar (GOOY) 17.01.2018 21:00 UTC Zobrazit METAR
GOOY 172100Z 02013KT 4000 DU NSC 18/14 Q1015
Damascus (OSDI) 17.01.2018 21:00 UTC Zobrazit METAR
OSDI 172100Z 22008KT 9999 FEW030 SCT100 07/05 Q1015
Debrecen (LHDC) 17.01.2018 20:45 UTC Zobrazit METAR
LHDC 172045Z 29005KT 4800 BR OVC008 00/M01 Q1000 NOSIG
Delhi (VIDP) 17.01.2018 15:00 UTC Zobrazit METAR
VIDP 171500Z 10004KT 2100 FU NSC 15/10 Q1015 NOSIG
Dhaka (VGZR) Zatím nenačteno  
Diego Garcia (FJDG) 17.01.2018 20:55 UTC Zobrazit METAR
FJDG 172055Z 27006KT 9999 FEW020 FEW080 SCT250 27/25 A2979 RMK SLP085 8/131 T02730251 57020
Djibouti (HDAM) 17.01.2018 05:00 UTC Zobrazit METAR
HDAM 170500Z 24004KT 9999 FEW020 24/16 Q1017
Dnipropetrovs'k (UKDD) 12.08.2013 14:00 UTC Zobrazit METAR
UKDD 121400Z CAVOK 33/13 Q1012 08090070 NOSIG
Dodoma (HTDO) 15.01.2018 00:00 UTC Zobrazit METAR
HTDO 150000Z 00000KT 8000 TSRA SCT020 FEW021 BKN070 19/19 Q1017 NOSIG
Doha (OTBD) 17.01.2018 21:00 UTC Zobrazit METAR
OTBD 172100Z 30005KT CAVOK 17/08 Q1016 NOSIG
Dortmund (EDLW) 17.01.2018 20:50 UTC Zobrazit METAR
EDLW 172050Z 24015G27KT 9999 -RA SCT018 BKN036 03/M00 Q1006
Dresden (EDDC) 17.01.2018 20:50 UTC Zobrazit METAR
EDDC 172050Z 28009KT 250V310 9999 FEW016 SCT026 BKN050 01/M00 Q1002 R04/29//95 NOSIG
Dublin (EIDW) 17.01.2018 21:00 UTC Zobrazit METAR
EIDW 172100Z 23016G26KT 8000 -RADZ FEW009 BKN011 BKN017 08/07 Q0989 BECMG 24025G38KT
Dubrovnik (LDDU) 17.01.2018 21:00 UTC Zobrazit METAR
LDDU 172100Z 34021KT 300V030 9999 FEW045 07/M03 Q1004 RERA TEMPO 4000 TSRA SCT030CB BKN035
Dushanbe (UTDD) Zatím nenačteno  
Dusseldorf (EDDL) 17.01.2018 20:50 UTC Zobrazit METAR
EDDL 172050Z 22011KT 9999 SCT030 SCT060 03/00 Q1007 NOSIG
Dzaoudzi (FMCZ) 17.01.2018 21:00 UTC Zobrazit METAR
FMCZ 172100Z AUTO VRB02KT 7000 BKN012/// BKN018/// BKN250/// 25/24 Q1010 BECMG SCT020 BKN040TCU
Reklama

Počasí na Váš email

Emaily jsou bez reklamy a bez spamu



Odhlásit newsletter

Reklama


Lunární kalendář

  • 24.01.
  • 31.01.
  • 07.02.
  • 15.02.



Jsme na Google Plus

Reklama
Povinné ručení



Může Vás také zajímat:


Reklama